Time;durP1;ratioP1;P1;durP2;ratioP2;P2;SDS_P1;SDS_P2;PMS_P1;PMS_P2;Temp;Humidity;BMP_temperature;BMP_pressure;BME280_temperature;BME280_humidity;BME280_pressure;Samples;Min_cycle;Max_cycle;Signal;HPM_P1;HPM_P2
2021/03/17 00:02:16;;;;;;;13.13;6.43;;;4.10;93.10;;;;;;5050716;28;20388;-81
2021/03/17 00:04:42;;;;;;;11.80;6.20;;;4.20;93.50;;;;;;5048774;28;20446;-81
2021/03/17 00:07:08;;;;;;;9.68;5.82;;;4.20;93.20;;;;;;5050186;28;20870;-81
2021/03/17 00:09:33;;;;;;;10.82;5.63;;;4.20;93.30;;;;;;5049850;28;20385;-81
2021/03/17 00:11:59;;;;;;;15.45;6.00;;;4.20;93.20;;;;;;5050374;28;20412;-81
2021/03/17 00:14:25;;;;;;;14.73;6.47;;;4.10;93.10;;;;;;5048976;28;20393;-81
2021/03/17 00:16:50;;;;;;;12.77;6.17;;;4.10;93.60;;;;;;5049559;28;20514;-82
2021/03/17 00:19:16;;;;;;;12.20;5.75;;;4.20;93.60;;;;;;5050792;28;20381;-82
2021/03/17 00:21:41;;;;;;;16.20;5.85;;;4.20;93.40;;;;;;5050070;28;20448;-82
2021/03/17 00:24:07;;;;;;;13.73;6.05;;;4.20;93.20;;;;;;5051044;28;20850;-81
2021/03/17 00:26:33;;;;;;;12.77;6.35;;;4.20;93.30;;;;;;5049817;28;20456;-80
2021/03/17 00:28:58;;;;;;;13.83;6.33;;;4.20;93.60;;;;;;5050030;28;20485;-80
2021/03/17 00:31:24;;;;;;;16.87;5.83;;;4.10;94.00;;;;;;5049660;28;20412;-81
2021/03/17 00:33:49;;;;;;;14.25;6.85;;;4.20;93.70;;;;;;5050358;28;20591;-79
2021/03/17 00:36:15;;;;;;;13.00;6.32;;;4.20;93.40;;;;;;5050056;28;20683;-81
2021/03/17 00:38:41;;;;;;;12.85;6.40;;;4.30;93.40;;;;;;5049948;28;20390;-80
2021/03/17 00:41:07;;;;;;;15.30;6.70;;;4.20;93.50;;;;;;5050063;28;20369;-81
2021/03/17 00:43:32;;;;;;;10.97;6.20;;;4.10;93.80;;;;;;5049157;28;20400;-81
2021/03/17 00:45:57;;;;;;;13.60;6.73;;;4.10;93.80;;;;;;5048839;28;20718;-80
2021/03/17 00:48:23;;;;;;;12.35;6.55;;;4.10;93.80;;;;;;5048461;28;20382;-82
2021/03/17 00:50:48;;;;;;;16.35;6.65;;;4.10;93.80;;;;;;5049032;28;20495;-82
2021/03/17 00:53:14;;;;;;;16.53;7.30;;;4.10;93.90;;;;;;5050324;28;20598;-82
2021/03/17 00:55:39;;;;;;;16.07;6.87;;;4.00;94.20;;;;;;5050679;28;20415;-82
2021/03/17 00:58:05;;;;;;;11.97;6.50;;;4.00;94.00;;;;;;5049402;28;20423;-82
2021/03/17 01:00:30;;;;;;;13.67;6.20;;;4.00;93.90;;;;;;5050412;28;20722;-82
2021/03/17 01:02:56;;;;;;;16.90;6.70;;;4.00;93.90;;;;;;5052510;28;20381;-81
2021/03/17 01:05:21;;;;;;;10.68;5.85;;;3.90;94.10;;;;;;5053703;28;20435;-82
2021/03/17 01:07:47;;;;;;;15.45;5.72;;;4.00;93.90;;;;;;5050727;28;20404;-82
2021/03/17 01:10:21;;;;;;;10.93;4.10;;;3.90;93.10;;;;;;5052515;28;20401;-79
2021/03/17 01:12:47;;;;;;;11.23;4.38;;;4.00;92.00;;;;;;5053818;28;20381;-82
2021/03/17 01:15:15;;;;;;;12.40;4.90;;;4.00;92.00;;;;;;5053706;28;20522;-83
2021/03/17 01:17:41;;;;;;;14.68;5.60;;;3.90;92.50;;;;;;5051957;28;20449;-82
2021/03/17 01:20:07;;;;;;;9.95;4.68;;;3.90;92.90;;;;;;5053451;28;20539;-80
2021/03/17 01:22:33;;;;;;;10.32;4.95;;;3.90;93.10;;;;;;5053728;28;20810;-81
2021/03/17 01:24:59;;;;;;;14.00;5.68;;;4.00;92.90;;;;;;5053629;28;20451;-82
2021/03/17 01:27:24;;;;;;;14.30;6.57;;;3.90;93.30;;;;;;5053254;28;20385;-83
2021/03/17 01:29:50;;;;;;;16.27;6.50;;;3.90;93.80;;;;;;5053292;28;20382;-80
2021/03/17 01:32:15;;;;;;;16.83;6.63;;;3.90;94.00;;;;;;5053549;28;20378;-81
2021/03/17 01:34:41;;;;;;;16.38;7.22;;;3.90;94.10;;;;;;5052287;28;20385;-82
2021/03/17 01:37:06;;;;;;;17.10;7.97;;;3.90;94.30;;;;;;5051677;28;20381;-79
2021/03/17 01:39:32;;;;;;;21.08;8.32;;;3.90;94.30;;;;;;5053136;28;20472;-82
2021/03/17 01:41:57;;;;;;;19.58;9.15;;;3.90;94.40;;;;;;5053263;28;20725;-80
2021/03/17 01:44:23;;;;;;;15.80;8.63;;;3.90;94.50;;;;;;5051796;28;20382;-79
2021/03/17 01:46:48;;;;;;;17.40;9.80;;;3.90;94.60;;;;;;5051159;28;20382;-82
2021/03/17 01:49:14;;;;;;;20.23;10.57;;;4.00;94.30;;;;;;5053274;28;20710;-80
2021/03/17 01:51:39;;;;;;;24.87;10.10;;;4.00;94.40;;;;;;5051436;28;20948;-82
2021/03/17 01:54:06;;;;;;;21.70;10.00;;;3.90;94.10;;;;;;5052625;28;20377;-82
2021/03/17 01:56:32;;;;;;;23.98;11.77;;;3.90;94.30;;;;;;5052286;28;20476;-82
2021/03/17 01:58:58;;;;;;;20.15;10.68;;;3.90;94.60;;;;;;5051448;28;20485;-81
2021/03/17 02:01:24;;;;;;;24.80;11.55;;;3.90;94.60;;;;;;5052436;28;20384;-82
2021/03/17 02:03:49;;;;;;;25.97;11.57;;;3.90;94.60;;;;;;5051478;28;20420;-82
2021/03/17 02:06:15;;;;;;;26.70;11.57;;;3.90;94.70;;;;;;5052363;28;20373;-82
2021/03/17 02:08:43;;;;;;;21.77;11.20;;;3.90;94.20;;;;;;5067551;28;20704;-82
2021/03/17 02:11:11;;;;;;;23.20;12.15;;;3.90;94.60;;;;;;5052335;28;20401;-82
2021/03/17 02:13:54;;;;;;;25.33;12.13;;;3.90;94.20;;;;;;5051268;28;20389;-81
2021/03/17 02:16:30;;;;;;;24.23;12.23;;;3.90;94.40;;;;;;5052501;28;20467;-81
2021/03/17 02:19:05;;;;;;;28.42;12.50;;;3.90;94.50;;;;;;5052134;28;20381;-82
2021/03/17 02:21:48;;;;;;;21.83;11.77;;;3.90;94.50;;;;;;5052340;28;20382;-82
2021/03/17 02:24:27;;;;;;;25.80;12.90;;;3.90;94.60;;;;;;5052166;28;20378;-81
2021/03/17 02:26:59;;;;;;;21.85;11.18;;;3.90;94.90;;;;;;5052054;28;20415;-82
2021/03/17 02:29:43;;;;;;;22.13;11.15;;;3.90;94.80;;;;;;5052019;28;20420;-81
2021/03/17 02:32:27;;;;;;;19.33;11.00;;;3.90;94.70;;;;;;5050449;28;20786;-82
2021/03/17 02:34:57;;;;;;;22.02;11.60;;;3.90;95.00;;;;;;5051796;28;20833;-80
2021/03/17 02:37:25;;;;;;;20.10;11.13;;;3.90;95.00;;;;;;5051863;28;20378;-82
2021/03/17 02:40:04;;;;;;;21.48;11.73;;;3.90;95.10;;;;;;5050601;28;20401;-82
2021/03/17 02:42:33;;;;;;;24.33;12.60;;;3.90;94.80;;;;;;5051882;28;20895;-79
2021/03/17 02:45:03;;;;;;;22.35;12.48;;;3.90;95.00;;;;;;5051729;28;20421;-81
2021/03/17 02:47:32;;;;;;;25.17;11.90;;;3.80;95.20;;;;;;5051536;28;20448;-82
2021/03/17 02:50:00;;;;;;;22.60;11.32;;;3.80;95.40;;;;;;5051346;28;20739;-82
2021/03/17 02:52:31;;;;;;;22.13;11.57;;;3.80;95.30;;;;;;5050421;28;20888;-82
2021/03/17 02:54:57;;;;;;;24.42;12.57;;;3.70;95.10;;;;;;5051706;28;20408;-81
2021/03/17 02:57:26;;;;;;;25.03;12.53;;;3.80;95.20;;;;;;5050707;28;20876;-81
2021/03/17 02:59:54;;;;;;;25.45;12.52;;;3.70;95.10;;;;;;5051791;28;20405;-81
2021/03/17 03:02:21;;;;;;;24.02;12.15;;;3.80;95.10;;;;;;5049899;28;20421;-81
2021/03/17 03:04:50;;;;;;;21.95;12.60;;;3.70;95.00;;;;;;5051730;28;20381;-81
2021/03/17 03:07:16;;;;;;;21.00;11.98;;;3.70;94.70;;;;;;5050824;28;20377;-81
2021/03/17 03:09:43;;;;;;;22.50;12.10;;;3.60;94.60;;;;;;5051495;28;20893;-81
2021/03/17 03:12:11;;;;;;;21.85;12.55;;;3.60;94.80;;;;;;5051133;28;20744;-81
2021/03/17 03:14:37;;;;;;;21.77;11.73;;;3.50;94.80;;;;;;5051497;28;20412;-81
2021/03/17 03:17:05;;;;;;;20.42;11.60;;;3.50;94.80;;;;;;5050622;28;20381;-81
2021/03/17 03:19:34;;;;;;;20.60;12.03;;;3.40;94.90;;;;;;5051497;28;20370;-81
2021/03/17 03:22:00;;;;;;;22.88;11.52;;;3.40;95.10;;;;;;5051009;28;20439;-81
2021/03/17 03:24:27;;;;;;;17.50;10.98;;;3.40;95.20;;;;;;5050763;28;20469;-81
2021/03/17 03:26:54;;;;;;;18.65;11.40;;;3.50;95.30;;;;;;5049502;28;20400;-81
2021/03/17 03:29:20;;;;;;;19.15;10.52;;;3.40;95.30;;;;;;5050950;28;20373;-81
2021/03/17 03:31:47;;;;;;;18.08;10.40;;;3.40;95.40;;;;;;5051015;28;20404;-81
2021/03/17 03:34:14;;;;;;;16.80;10.00;;;3.40;95.30;;;;;;5050771;28;20387;-81
2021/03/17 03:36:40;;;;;;;15.25;8.95;;;3.40;95.40;;;;;;5050652;28;20882;-81
2021/03/17 03:39:06;;;;;;;13.17;8.43;;;3.40;95.30;;;;;;5050716;28;20495;-81
2021/03/17 03:41:32;;;;;;;13.60;8.83;;;3.40;95.20;;;;;;5049987;28;20439;-82
2021/03/17 03:43:58;;;;;;;5.78;3.83;;;3.40;95.20;;;;;;5050970;28;20397;-81
2021/03/17 03:46:23;;;;;;;0.10;0.10;;;3.40;95.30;;;;;;5049754;28;20396;-80
2021/03/17 03:48:49;;;;;;;0.10;0.10;;;3.40;95.30;;;;;;5050971;28;20393;-81
2021/03/17 03:51:18;;;;;;;0.00;0.00;;;3.40;95.00;;;;;;5051083;28;20406;-81
2021/03/17 03:54:08;;;;;;;0.10;0.10;;;3.30;94.80;;;;;;5050787;28;20591;-82
2021/03/17 03:56:47;;;;;;;0.10;0.10;;;3.30;94.70;;;;;;5048910;28;20416;-81
2021/03/17 03:59:15;;;;;;;0.10;0.10;;;3.30;94.60;;;;;;5050733;28;20377;-81
2021/03/17 04:01:47;;;;;;;0.10;0.10;;;3.30;94.50;;;;;;5050616;28;20405;-81
2021/03/17 04:04:18;;;;;;;0.10;0.10;;;3.20;94.80;;;;;;5050835;28;20766;-81
2021/03/17 04:06:49;;;;;;;0.10;0.10;;;3.20;94.90;;;;;;5050246;28;20447;-81
2021/03/17 04:09:16;;;;;;;0.10;0.10;;;3.30;95.00;;;;;;5050574;28;20392;-81
2021/03/17 04:11:43;;;;;;;0.00;0.00;;;3.30;94.80;;;;;;5048776;28;20408;-81
2021/03/17 04:14:09;;;;;;;0.10;0.10;;;3.20;94.80;;;;;;5049087;28;20719;-81
2021/03/17 04:16:38;;;;;;;0.10;0.10;;;3.20;94.80;;;;;;5049900;28;20882;-81
2021/03/17 04:19:05;;;;;;;0.10;0.10;;;3.30;94.70;;;;;;5050171;28;20494;-81
2021/03/17 04:21:35;;;;;;;0.10;0.10;;;3.20;94.40;;;;;;5050623;28;20789;-81
2021/03/17 04:24:02;;;;;;;0.00;0.00;;;3.20;94.50;;;;;;5048961;28;20389;-81
2021/03/17 04:26:30;;;;;;;0.10;0.10;;;3.20;94.60;;;;;;5050151;28;20476;-81
2021/03/17 04:28:57;;;;;;;0.10;0.10;;;3.20;94.80;;;;;;5048817;28;20417;-81
2021/03/17 04:31:24;;;;;;;0.10;0.10;;;3.20;94.60;;;;;;5050391;28;20397;-81
2021/03/17 04:33:50;;;;;;;0.10;0.10;;;3.30;94.50;;;;;;5048777;28;20390;-81
2021/03/17 04:36:17;;;;;;;0.10;0.10;;;3.20;94.80;;;;;;5051850;28;20388;-81
2021/03/17 04:38:43;;;;;;;0.10;0.10;;;3.20;94.50;;;;;;5053635;28;20447;-81
2021/03/17 04:41:11;;;;;;;0.10;0.10;;;3.30;94.60;;;;;;5052952;28;20708;-81
2021/03/17 04:43:41;;;;;;;0.10;0.10;;;3.20;94.70;;;;;;5054011;28;20854;-81
2021/03/17 04:46:10;;;;;;;0.10;0.10;;;3.30;94.70;;;;;;5054216;28;20892;-81
2021/03/17 04:48:38;;;;;;;0.10;0.10;;;3.30;94.80;;;;;;5053687;28;20388;-82
2021/03/17 04:51:05;;;;;;;0.10;0.10;;;3.40;94.60;;;;;;5053137;28;20416;-81
2021/03/17 04:53:31;;;;;;;0.10;0.10;;;3.30;94.70;;;;;;5054216;28;20522;-81
2021/03/17 04:55:57;;;;;;;0.05;0.05;;;3.30;94.90;;;;;;5053947;28;20465;-81
2021/03/17 04:58:25;;;;;;;0.00;0.00;;;3.30;95.10;;;;;;5053554;28;20388;-81
2021/03/17 05:00:51;;;;;;;0.10;0.10;;;3.30;95.10;;;;;;5053827;28;20861;-82
2021/03/17 05:03:21;;;;;;;0.10;0.10;;;3.40;95.20;;;;;;5052677;28;20385;-81
2021/03/17 05:05:50;;;;;;;0.10;0.10;;;3.40;94.80;;;;;;5052436;28;20472;-81
2021/03/17 05:08:18;;;;;;;0.10;0.10;;;3.40;94.80;;;;;;5053413;28;20431;-81
2021/03/17 05:10:45;;;;;;;0.10;0.10;;;3.40;94.90;;;;;;5052080;28;20884;-82
2021/03/17 05:13:13;;;;;;;0.10;0.10;;;3.40;95.00;;;;;;5052314;28;20725;-82
2021/03/17 05:15:40;;;;;;;0.10;0.10;;;3.40;94.90;;;;;;5052566;28;20873;-81
2021/03/17 05:18:08;;;;;;;0.00;0.00;;;3.40;94.90;;;;;;5052805;28;20862;-81
2021/03/17 05:20:34;;;;;;;0.10;0.10;;;3.40;94.90;;;;;;5053678;28;20378;-81
2021/03/17 05:23:01;;;;;;;0.00;0.00;;;3.40;94.60;;;;;;5052105;28;20451;-81
2021/03/17 05:25:28;;;;;;;0.10;0.10;;;3.40;94.80;;;;;;5053870;28;20388;-81
2021/03/17 05:27:56;;;;;;;0.10;0.10;;;3.40;94.80;;;;;;5051222;28;20393;-82
2021/03/17 05:30:24;;;;;;;0.00;0.00;;;3.40;94.80;;;;;;5050638;28;20405;-81
2021/03/17 05:32:52;;;;;;;0.10;0.10;;;3.40;95.00;;;;;;5053356;28;20384;-82
2021/03/17 05:35:17;;;;;;;0.10;0.10;;;3.40;94.90;;;;;;5053406;28;20389;-81
2021/03/17 05:37:45;;;;;;;0.10;0.10;;;3.40;95.00;;;;;;5052972;28;20788;-82
2021/03/17 05:40:14;;;;;;;0.10;0.10;;;3.40;95.10;;;;;;5053171;28;20389;-82
2021/03/17 05:42:41;;;;;;;0.00;0.00;;;3.40;95.30;;;;;;5051850;28;20454;-81
2021/03/17 05:45:10;;;;;;;0.10;0.10;;;3.40;95.40;;;;;;5052765;28;20983;-81
2021/03/17 05:47:37;;;;;;;0.03;0.03;;;3.40;95.40;;;;;;5051099;28;20393;-81
2021/03/17 05:50:04;;;;;;;0.10;0.10;;;3.40;95.70;;;;;;5052874;28;20673;-81
2021/03/17 05:52:30;;;;;;;0.10;0.10;;;3.40;95.60;;;;;;5051822;28;20390;-81
2021/03/17 05:54:56;;;;;;;0.00;0.00;;;3.50;95.50;;;;;;5053148;28;20794;-81
2021/03/17 05:57:22;;;;;;;0.10;0.10;;;3.50;95.60;;;;;;5052907;28;20408;-82
2021/03/17 05:59:48;;;;;;;0.10;0.10;;;3.40;95.70;;;;;;5051822;28;20390;-81
2021/03/17 06:02:14;;;;;;;0.10;0.10;;;3.40;95.50;;;;;;5052795;28;20380;-82
2021/03/17 06:04:41;;;;;;;0.10;0.10;;;3.40;95.40;;;;;;5051708;28;20426;-81
2021/03/17 06:07:14;;;;;;;0.10;0.10;;;3.40;95.50;;;;;;5052063;28;20436;-81
2021/03/17 06:09:39;;;;;;;0.00;0.00;;;3.40;95.40;;;;;;5051805;28;20386;-82
2021/03/17 06:12:09;;;;;;;0.00;0.00;;;3.50;95.30;;;;;;5051295;28;20409;-82
2021/03/17 06:14:36;;;;;;;0.05;0.05;;;3.40;95.20;;;;;;5052874;28;20464;-82
2021/03/17 06:17:07;;;;;;;0.10;0.10;;;3.40;95.30;;;;;;5050902;28;20386;-86
2021/03/17 06:19:34;;;;;;;0.10;0.10;;;3.40;95.40;;;;;;5052723;28;20401;-81
2021/03/17 06:22:01;;;;;;;0.00;0.00;;;2.50;93.20;;;;;;5055727;28;20403;-81
2021/03/17 06:24:27;;;;;;;0.10;0.10;;;2.30;94.00;;;;;;5052086;28;20400;-81
2021/03/17 06:26:54;;;;;;;0.03;0.03;;;2.30;93.80;;;;;;5051425;28;20730;-81
2021/03/17 06:29:20;;;;;;;0.03;0.03;;;2.40;94.50;;;;;;5051842;28;20381;-81
2021/03/17 06:31:47;;;;;;;0.10;0.10;;;2.30;94.80;;;;;;5050394;28;20933;-81
2021/03/17 06:34:13;;;;;;;0.10;0.10;;;2.40;94.80;;;;;;5052407;28;20909;-81
2021/03/17 06:36:50;;;;;;;0.00;0.00;;;2.30;94.70;;;;;;5051817;28;20397;-81
2021/03/17 06:39:16;;;;;;;0.10;0.10;;;2.30;94.30;;;;;;5050563;28;20401;-81
2021/03/17 06:41:54;;;;;;;0.10;0.10;;;2.30;94.60;;;;;;5050714;28;20383;-81
2021/03/17 06:44:28;;;;;;;0.10;0.10;;;2.20;94.40;;;;;;5050565;28;20385;-82
2021/03/17 06:47:13;;;;;;;0.10;0.10;;;2.20;94.60;;;;;;5051390;28;20496;-81
2021/03/17 06:49:44;;;;;;;0.10;0.10;;;2.30;94.30;;;;;;5050812;28;20389;-82
2021/03/17 06:52:27;;;;;;;0.10;0.10;;;2.20;94.20;;;;;;5051678;28;20437;-81
2021/03/17 06:55:08;;;;;;;0.10;0.10;;;2.30;94.40;;;;;;5052176;28;20381;-82
2021/03/17 06:57:35;;;;;;;0.10;0.10;;;2.40;94.40;;;;;;5051202;28;20385;-82
2021/03/17 07:00:22;;;;;;;0.10;0.10;;;2.40;93.90;;;;;;5051172;28;20830;-81
2021/03/17 07:02:55;;;;;;;0.10;0.10;;;2.50;94.10;;;;;;5051823;28;20703;-82
2021/03/17 07:05:49;;;;;;;0.00;0.00;;;2.70;94.00;;;;;;5051502;28;20385;-83
2021/03/17 07:08:27;;;;;;;0.10;0.10;;;2.70;93.40;;;;;;5050564;28;20394;-82
2021/03/17 07:11:01;;;;;;;0.10;0.10;;;2.80;93.30;;;;;;5049152;28;20432;-82
2021/03/17 07:13:28;;;;;;;0.00;0.00;;;2.80;93.80;;;;;;5051541;28;20394;-82
2021/03/17 07:15:56;;;;;;;0.10;0.10;;;3.00;93.40;;;;;;5051179;28;20830;-82
2021/03/17 07:18:27;;;;;;;0.10;0.10;;;3.10;93.40;;;;;;5049434;28;20758;-82
2021/03/17 07:20:56;;;;;;;0.10;0.10;;;3.10;92.50;;;;;;5051184;28;20369;-83
2021/03/17 07:23:21;;;;;;;0.03;0.03;;;3.00;92.00;;;;;;5049736;28;20523;-83
2021/03/17 07:26:05;;;;;;;0.10;0.10;;;3.10;92.00;;;;;;5051095;28;21087;-82
2021/03/17 07:29:10;;;;;;;0.10;0.10;;;3.10;91.00;;;;;;5050361;28;20847;-83
2021/03/17 07:31:44;;;;;;;0.10;0.10;;;3.20;92.40;;;;;;5047211;28;20736;-82
2021/03/17 07:34:30;;;;;;;0.10;0.10;;;3.10;91.60;;;;;;5051026;28;20395;-82
2021/03/17 07:37:01;;;;;;;0.10;0.10;;;3.10;92.00;;;;;;5050298;28;20388;-82
2021/03/17 07:39:30;;;;;;;0.10;0.10;;;3.00;90.90;;;;;;5051062;28;20917;-83
2021/03/17 07:41:59;;;;;;;0.00;0.00;;;3.10;91.70;;;;;;5049033;28;20939;-84
2021/03/17 07:44:25;;;;;;;0.10;0.10;;;3.20;91.40;;;;;;5049680;28;20377;-83
2021/03/17 07:46:57;;;;;;;0.10;0.10;;;3.20;91.70;;;;;;5049239;28;20401;-83
2021/03/17 07:49:23;;;;;;;0.10;0.10;;;3.20;91.40;;;;;;5049423;28;20704;-82
2021/03/17 07:51:51;;;;;;;0.10;0.10;;;3.50;91.60;;;;;;5049252;28;20414;-83
2021/03/17 07:54:28;;;;;;;0.10;0.10;;;3.50;91.20;;;;;;5049572;28;20443;-83
2021/03/17 07:56:58;;;;;;;0.00;0.00;;;3.60;90.90;;;;;;5048335;28;20480;-83
2021/03/17 07:59:24;;;;;;;0.10;0.10;;;3.60;90.80;;;;;;5048400;28;20385;-83
2021/03/17 08:01:56;;;;;;;0.10;0.10;;;3.60;89.20;;;;;;5050106;28;20385;-83
2021/03/17 08:04:26;;;;;;;0.10;0.10;;;3.70;90.70;;;;;;5049781;28;20396;-83
2021/03/17 08:06:54;;;;;;;0.10;0.10;;;3.90;89.80;;;;;;5048345;28;20405;-82
2021/03/17 08:09:20;;;;;;;0.10;0.10;;;3.90;88.40;;;;;;5049420;28;20421;-83
2021/03/17 08:11:47;;;;;;;0.00;0.00;;;3.90;87.70;;;;;;5048617;28;20902;-82
2021/03/17 08:14:13;;;;;;;0.00;0.00;;;3.70;86.50;;;;;;5046912;28;20389;-83
2021/03/17 08:16:40;;;;;;;0.10;0.10;;;3.70;88.70;;;;;;5048994;28;20394;-82
2021/03/17 08:19:25;;;;;;;0.10;0.10;;;3.70;88.60;;;;;;5047817;28;20782;-81
2021/03/17 08:22:05;;;;;;;0.10;0.10;;;3.70;88.00;;;;;;5049406;28;20476;-82
2021/03/17 08:24:34;;;;;;;0.10;0.10;;;3.70;88.90;;;;;;5049795;28;20389;-82
2021/03/17 08:27:06;;;;;;;0.05;0.05;;;3.70;89.00;;;;;;5048979;28;20404;-83
2021/03/17 08:29:45;;;;;;;0.10;0.10;;;3.30;88.80;;;;;;5049630;28;20442;-82
2021/03/17 08:32:17;;;;;;;0.10;0.10;;;3.20;90.40;;;;;;5048598;28;20410;-82
2021/03/17 08:34:56;;;;;;;0.10;0.10;;;3.30;91.20;;;;;;5049655;28;20392;-82
2021/03/17 08:37:48;;;;;;;0.10;0.10;;;3.60;89.80;;;;;;5047386;28;20469;-82
2021/03/17 08:40:46;;;;;;;0.05;0.05;;;3.70;90.10;;;;;;5049486;28;20451;-81
2021/03/17 08:43:37;;;;;;;0.00;0.00;;;3.70;90.20;;;;;;5049419;28;20392;-82
2021/03/17 08:46:14;;;;;;;0.10;0.10;;;3.90;90.50;;;;;;5047977;28;20386;-81
2021/03/17 08:49:03;;;;;;;0.10;0.10;;;3.70;90.60;;;;;;5048819;28;20858;-82
2021/03/17 08:51:47;;;;;;;0.00;0.00;;;3.90;90.90;;;;;;5047910;28;20413;-82
2021/03/17 08:54:31;;;;;;;0.10;0.10;;;3.70;90.00;;;;;;5049137;28;20403;-82
2021/03/17 08:57:07;;;;;;;0.00;0.00;;;3.80;91.50;;;;;;5048336;28;20897;-82
2021/03/17 08:59:47;;;;;;;0.10;0.10;;;3.70;89.90;;;;;;5047691;28;20373;-81
2021/03/17 09:02:26;;;;;;;0.10;0.10;;;3.60;89.20;;;;;;5048494;28;20396;-82
2021/03/17 09:04:59;;;;;;;0.10;0.10;;;3.60;90.10;;;;;;5047859;28;20385;-82
2021/03/17 09:07:28;;;;;;;0.10;0.10;;;3.60;89.60;;;;;;5047685;28;20908;-82
2021/03/17 09:10:12;;;;;;;0.03;0.03;;;3.70;90.00;;;;;;5048687;28;20787;-82
2021/03/17 09:12:37;;;;;;;0.00;0.00;;;3.60;89.90;;;;;;5047419;28;20389;-82
2021/03/17 09:15:17;;;;;;;0.10;0.10;;;3.90;89.70;;;;;;5052623;28;20469;-82
2021/03/17 09:17:43;;;;;;;0.10;0.10;;;3.70;89.70;;;;;;5048290;28;20386;-82
2021/03/17 09:20:24;;;;;;;0.03;0.03;;;3.80;90.50;;;;;;5048413;28;20785;-82
2021/03/17 09:23:00;;;;;;;0.10;0.10;;;3.80;90.50;;;;;;5050721;28;20386;-82
2021/03/17 09:25:42;;;;;;;0.10;0.10;;;3.90;89.80;;;;;;5052218;28;20378;-82
2021/03/17 09:28:12;;;;;;;0.00;0.00;;;3.90;88.50;;;;;;5051907;28;20377;-82
2021/03/17 09:30:59;;;;;;;0.10;0.10;;;4.10;89.70;;;;;;5052154;28;20934;-82
2021/03/17 09:33:42;;;;;;;0.10;0.10;;;3.90;86.20;;;;;;5052050;28;20878;-82
2021/03/17 09:36:12;;;;;;;0.00;0.00;;;4.10;87.20;;;;;;5052443;28;20704;-82
2021/03/17 09:38:41;;;;;;;0.10;0.10;;;4.20;87.00;;;;;;5051585;28;20435;-82
2021/03/17 09:41:13;;;;;;;0.10;0.10;;;4.00;85.00;;;;;;5051946;28;20389;-82
2021/03/17 09:43:46;;;;;;;0.00;0.00;;;4.30;87.20;;;;;;5050730;28;20771;-82
2021/03/17 09:46:22;;;;;;;0.10;0.10;;;4.30;85.00;;;;;;5052330;28;20390;-82
2021/03/17 09:48:49;;;;;;;0.00;0.00;;;4.20;84.80;;;;;;5051460;28;20455;-83
2021/03/17 09:51:17;;;;;;;0.00;0.00;;;4.40;84.90;;;;;;5050306;28;20953;-81
2021/03/17 09:53:47;;;;;;;0.03;0.03;;;4.30;84.70;;;;;;5051495;28;20398;-82
2021/03/17 09:56:13;;;;;;;0.00;0.00;;;4.50;86.40;;;;;;5052232;28;20390;-82
2021/03/17 09:58:40;;;;;;;0.00;0.00;;;4.50;84.60;;;;;;5051433;28;20381;-85
2021/03/17 10:01:14;;;;;;;0.00;0.00;;;4.40;84.50;;;;;;5051554;28;20524;-81
2021/03/17 10:03:44;;;;;;;0.10;0.10;;;4.30;84.90;;;;;;5050121;28;20389;-82
2021/03/17 10:06:10;;;;;;;0.00;0.00;;;4.40;84.60;;;;;;5050383;28;20393;-82
2021/03/17 10:08:36;;;;;;;0.10;0.10;;;4.60;83.80;;;;;;5051135;28;20913;-82
2021/03/17 10:11:02;;;;;;;0.10;0.10;;;4.70;82.60;;;;;;5051413;28;20409;-82
2021/03/17 10:13:33;;;;;;;0.00;0.00;;;4.50;82.40;;;;;;5051905;28;20381;-81
2021/03/17 10:16:00;;;;;;;0.00;0.00;;;4.60;82.20;;;;;;5051413;28;20381;-81
2021/03/17 10:18:27;;;;;;;0.00;0.00;;;4.80;83.30;;;;;;5051244;28;20377;-81
2021/03/17 10:20:54;;;;;;;0.00;0.00;;;4.90;82.80;;;;;;5049127;28;20428;-81
2021/03/17 10:23:19;;;;;;;0.00;0.00;;;4.90;82.40;;;;;;5051755;28;20414;-81
2021/03/17 10:25:45;;;;;;;0.00;0.00;;;5.00;80.70;;;;;;5051708;28;20416;-81
2021/03/17 10:28:11;;;;;;;0.03;0.03;;;4.80;79.50;;;;;;5049704;28;20385;-81
2021/03/17 10:30:47;;;;;;;0.10;0.10;;;4.50;79.60;;;;;;5051566;28;20447;-81
2021/03/17 10:33:15;;;;;;;0.10;0.10;;;4.60;79.20;;;;;;5049481;28;20897;-81
2021/03/17 10:35:42;;;;;;;0.00;0.00;;;4.50;76.40;;;;;;5051814;28;20389;-81
2021/03/17 10:38:09;;;;;;;0.03;0.03;;;4.90;77.70;;;;;;5049106;28;20402;-81
2021/03/17 10:40:37;;;;;;;0.10;0.10;;;5.30;74.40;;;;;;5051503;28;20615;-81
2021/03/17 10:43:12;;;;;;;0.10;0.10;;;5.50;72.80;;;;;;5049550;28;20401;-81
2021/03/17 10:45:52;;;;;;;0.00;0.00;;;5.60;73.80;;;;;;5050749;28;20415;-81
2021/03/17 10:48:21;;;;;;;0.00;0.00;;;6.10;71.30;;;;;;5050540;28;20944;-81
2021/03/17 10:50:46;;;;;;;0.10;0.10;;;5.60;67.20;;;;;;5050753;28;20488;-81
2021/03/17 10:53:29;;;;;;;0.00;0.00;;;5.10;69.00;;;;;;5049641;28;20500;-82
2021/03/17 10:56:01;;;;;;;0.00;0.00;;;5.30;71.50;;;;;;5049590;28;20743;-82
2021/03/17 10:58:28;;;;;;;0.10;0.10;;;5.30;69.00;;;;;;5050408;28;20432;-83
2021/03/17 11:00:56;;;;;;;0.10;0.10;;;5.20;65.00;;;;;;5050534;28;20476;-83
2021/03/17 11:03:25;;;;;;;0.10;0.10;;;5.00;66.60;;;;;;5050676;28;20377;-82
2021/03/17 11:05:52;;;;;;;0.00;0.00;;;5.10;66.30;;;;;;5050757;28;20377;-82
2021/03/17 11:08:18;;;;;;;0.10;0.10;;;5.10;66.70;;;;;;5049996;28;20389;-83
2021/03/17 11:10:53;;;;;;;0.00;0.00;;;5.40;66.40;;;;;;5050949;28;20964;-82
2021/03/17 11:13:18;;;;;;;0.00;0.00;;;5.10;67.00;;;;;;5050577;28;20850;-82
2021/03/17 11:15:48;;;;;;;0.00;0.00;;;5.00;67.40;;;;;;5050208;28;20385;-83
2021/03/17 11:18:22;;;;;;;0.10;0.10;;;5.10;66.10;;;;;;5048967;28;20390;-82
2021/03/17 11:20:48;;;;;;;0.10;0.10;;;5.20;68.60;;;;;;5050276;28;20428;-83
2021/03/17 11:23:16;;;;;;;0.00;0.00;;;5.00;67.60;;;;;;5050455;28;20385;-83
2021/03/17 11:25:42;;;;;;;0.00;0.00;;;5.00;68.10;;;;;;5050440;28;20765;-83
2021/03/17 11:28:13;;;;;;;0.10;0.10;;;4.90;68.40;;;;;;5049746;28;20413;-83
2021/03/17 11:30:44;;;;;;;0.10;0.10;;;5.10;70.90;;;;;;5048601;28;20409;-82
2021/03/17 11:33:11;;;;;;;0.00;0.00;;;5.20;70.90;;;;;;5050506;28;20397;-82
2021/03/17 11:35:37;;;;;;;0.00;0.00;;;5.30;69.20;;;;;;5048527;28;20392;-82
2021/03/17 11:38:02;;;;;;;0.00;0.00;;;5.40;68.80;;;;;;5050011;28;20750;-83
2021/03/17 11:40:28;;;;;;;0.00;0.00;;;5.30;68.20;;;;;;5049810;28;20385;-82
2021/03/17 11:43:01;;;;;;;0.10;0.10;;;5.10;67.80;;;;;;5048673;28;20397;-82
2021/03/17 11:45:27;;;;;;;0.00;0.00;;;5.10;68.50;;;;;;5050689;28;21123;-82
2021/03/17 11:47:52;;;;;;;0.10;0.10;;;5.10;69.60;;;;;;5049372;28;20424;-82
2021/03/17 11:50:18;;;;;;;0.00;0.00;;;4.90;68.80;;;;;;5049752;28;20405;-82
2021/03/17 11:52:43;;;;;;;0.10;0.10;;;5.10;69.70;;;;;;5049721;28;20400;-82
2021/03/17 11:55:09;;;;;;;0.00;0.00;;;5.00;68.60;;;;;;5049885;28;20461;-82
2021/03/17 11:57:35;;;;;;;0.05;0.05;;;5.20;69.80;;;;;;5048996;28;20988;-83
2021/03/17 12:00:00;;;;;;;0.10;0.10;;;5.40;70.80;;;;;;5049983;28;20468;-82
2021/03/17 12:02:26;;;;;;;0.10;0.10;;;5.40;68.80;;;;;;5049695;28;20392;-82
2021/03/17 12:04:51;;;;;;;0.10;0.10;;;5.40;70.00;;;;;;5049781;28;20866;-82
2021/03/17 12:07:17;;;;;;;0.10;0.10;;;5.60;70.30;;;;;;5049153;28;20388;-82
2021/03/17 12:09:42;;;;;;;0.00;0.00;;;5.70;70.10;;;;;;5049733;28;20382;-82
2021/03/17 12:12:08;;;;;;;0.10;0.10;;;5.60;69.20;;;;;;5049208;28;20814;-83
2021/03/17 12:14:33;;;;;;;0.10;0.10;;;5.40;68.00;;;;;;5049630;28;20385;-80
2021/03/17 12:16:59;;;;;;;0.10;0.10;;;5.30;68.60;;;;;;5047631;28;20878;-82
2021/03/17 12:19:24;;;;;;;0.00;0.00;;;5.60;67.70;;;;;;5049502;28;20463;-83
2021/03/17 12:21:50;;;;;;;0.00;0.00;;;5.70;68.10;;;;;;5049010;28;20446;-83
2021/03/17 12:24:15;;;;;;;0.10;0.10;;;5.80;67.10;;;;;;5048352;28;20394;-82
2021/03/17 12:26:41;;;;;;;0.00;0.00;;;5.70;66.60;;;;;;5048149;28;20385;-82
2021/03/17 12:29:06;;;;;;;0.10;0.10;;;5.70;66.90;;;;;;5048757;28;20393;-82
2021/03/17 12:31:32;;;;;;;0.08;0.08;;;5.80;65.90;;;;;;5048888;28;20413;-83
2021/03/17 12:33:57;;;;;;;0.00;0.00;;;5.80;61.30;;;;;;5049281;28;20389;-82
2021/03/17 12:36:23;;;;;;;0.10;0.10;;;5.90;64.10;;;;;;5049072;28;20378;-81
2021/03/17 12:38:48;;;;;;;0.08;0.08;;;6.20;62.00;;;;;;5048852;28;20409;-82
2021/03/17 12:41:14;;;;;;;0.10;0.10;;;6.10;62.80;;;;;;5048093;28;20404;-83
2021/03/17 12:43:39;;;;;;;0.00;0.00;;;6.00;63.00;;;;;;5049171;28;20412;-83
2021/03/17 12:46:05;;;;;;;0.00;0.00;;;5.90;62.40;;;;;;5049486;28;20894;-83
2021/03/17 12:48:32;;;;;;;0.10;0.10;;;5.80;62.60;;;;;;5048431;28;20385;-82
2021/03/17 12:50:58;;;;;;;0.00;0.00;;;5.80;60.50;;;;;;5049273;28;20420;-83
2021/03/17 12:53:23;;;;;;;0.00;0.00;;;5.50;59.40;;;;;;5048227;28;20381;-83
2021/03/17 12:55:49;;;;;;;0.00;0.00;;;5.60;59.90;;;;;;5049172;28;20421;-83
2021/03/17 12:58:14;;;;;;;0.07;0.07;;;5.60;62.60;;;;;;5051555;28;20382;-82
2021/03/17 13:00:40;;;;;;;0.03;0.03;;;5.80;63.10;;;;;;5051262;28;20844;-83
2021/03/17 13:03:05;;;;;;;0.10;0.10;;;5.90;63.10;;;;;;5053024;28;20681;-83
2021/03/17 13:05:31;;;;;;;0.00;0.00;;;6.00;61.20;;;;;;5052889;28;20373;-82